createdAt,value
2022-10-17T00:00:19.894Z,3.50
2022-10-17T00:00:51.961Z,3.28
2022-10-17T00:01:24.742Z,3.78
2022-10-17T00:01:56.584Z,4.65
2022-10-17T00:02:28.408Z,3.80
2022-10-17T00:03:01.246Z,4.05
2022-10-17T00:03:33.191Z,3.38
2022-10-17T00:04:05.132Z,4.47
2022-10-17T00:04:39.222Z,6.22
2022-10-17T00:05:11.992Z,4.30
2022-10-17T00:05:46.423Z,4.05
2022-10-17T00:06:19.182Z,3.78
2022-10-17T00:06:50.946Z,4.03
2022-10-17T00:07:22.797Z,2.95
2022-10-17T00:07:56.392Z,3.92
2022-10-17T00:08:28.248Z,3.72
2022-10-17T00:09:00.100Z,5.38
2022-10-17T00:09:32.876Z,4.05
2022-10-17T00:10:05.928Z,5.15
2022-10-17T00:10:38.136Z,4.45
2022-10-17T00:11:16.729Z,4.05
2022-10-17T00:11:48.515Z,7.43
2022-10-17T00:12:20.339Z,3.00
2022-10-17T00:12:52.885Z,11.00
2022-10-17T00:13:25.952Z,3.08
2022-10-17T00:13:57.825Z,3.70
2022-10-17T00:14:29.682Z,3.42
2022-10-17T00:15:05.069Z,3.35
2022-10-17T00:15:37.335Z,4.60
2022-10-17T00:16:09.813Z,3.45
2022-10-17T00:16:42.604Z,4.03
2022-10-17T00:17:15.489Z,3.42
2022-10-17T00:17:47.302Z,4.50
2022-10-17T00:18:20.138Z,4.70
2022-10-17T00:18:52.009Z,3.78
2022-10-17T00:19:23.807Z,7.07
2022-10-17T00:19:59.711Z,3.35
2022-10-17T00:20:32.799Z,6.38
2022-10-17T00:21:04.786Z,3.13
2022-10-17T00:21:37.627Z,4.25
2022-10-17T00:22:09.457Z,3.47
2022-10-17T00:22:41.370Z,4.30
2022-10-17T00:23:14.095Z,4.45
2022-10-17T00:23:46.861Z,4.78
2022-10-17T00:24:18.703Z,5.72
2022-10-17T00:24:51.686Z,3.95
2022-10-17T00:25:23.604Z,5.22
2022-10-17T00:26:00.212Z,4.82
2022-10-17T00:26:33.316Z,4.25
2022-10-17T00:27:05.149Z,4.05
2022-10-17T00:27:38.389Z,7.30
2022-10-17T00:28:11.913Z,5.60
2022-10-17T00:28:46.315Z,3.90
2022-10-17T00:29:18.169Z,3.85
2022-10-17T00:29:51.270Z,6.43
2022-10-17T00:30:23.135Z,4.43
2022-10-17T00:30:58.706Z,2.95
2022-10-17T00:31:31.432Z,4.13
2022-10-17T00:32:03.305Z,3.65
2022-10-17T00:32:35.101Z,3.70
2022-10-17T00:33:07.901Z,4.82
2022-10-17T00:33:39.722Z,4.88
2022-10-17T00:34:11.508Z,3.15
2022-10-17T00:34:43.281Z,4.47
2022-10-17T00:35:17.695Z,3.72
2022-10-17T00:35:49.516Z,3.47
2022-10-17T00:36:22.990Z,3.20
2022-10-17T00:36:55.734Z,4.55
2022-10-17T00:37:27.532Z,3.40
2022-10-17T00:37:59.369Z,2.90
2022-10-17T00:38:32.129Z,4.22
2022-10-17T00:39:04.023Z,4.90
2022-10-17T00:39:35.976Z,3.25
2022-10-17T00:40:10.435Z,5.35
2022-10-17T00:40:42.210Z,2.80
2022-10-17T00:41:16.275Z,2.85
2022-10-17T00:41:49.036Z,3.50
2022-10-17T00:42:20.815Z,3.00
2022-10-17T00:42:53.129Z,2.20
2022-10-17T00:43:26.551Z,3.53
2022-10-17T00:44:00.916Z,2.95
2022-10-17T00:44:58.637Z,3.13
2022-10-17T00:45:32.246Z,3.20
2022-10-17T00:46:04.115Z,3.10
2022-10-17T00:46:37.367Z,4.47
2022-10-17T00:47:11.847Z,4.55
2022-10-17T00:47:48.864Z,3.15
2022-10-17T00:48:23.410Z,3.47
2022-10-17T00:48:57.080Z,4.22
2022-10-17T00:49:32.671Z,3.70
2022-10-17T00:50:07.538Z,3.13
2022-10-17T00:50:45.849Z,2.60
2022-10-17T00:51:21.845Z,3.25
2022-10-17T00:51:56.909Z,3.38
2022-10-17T00:52:30.930Z,2.78
2022-10-17T00:53:06.709Z,3.08
2022-10-17T00:53:39.642Z,3.55
2022-10-17T00:54:13.741Z,4.32
2022-10-17T00:54:48.393Z,4.50
2022-10-17T00:55:25.140Z,5.35
2022-10-17T00:55:56.933Z,3.38
2022-10-17T00:56:29.613Z,3.20
2022-10-17T00:57:03.035Z,3.38
2022-10-17T00:57:34.904Z,6.03
2022-10-17T00:58:06.945Z,4.72
2022-10-17T00:58:39.822Z,4.15
2022-10-17T00:59:13.613Z,4.60
2022-10-17T00:59:50.150Z,3.78
2022-10-17T01:00:23.351Z,3.70
2022-10-17T01:00:55.172Z,4.45
2022-10-17T01:01:27.289Z,3.10
2022-10-17T01:02:02.971Z,3.25
2022-10-17T01:02:34.782Z,3.20
2022-10-17T01:03:06.684Z,5.28
2022-10-17T01:03:39.800Z,5.20
2022-10-17T01:04:11.744Z,3.22
2022-10-17T01:04:46.365Z,3.80
2022-10-17T01:05:20.105Z,3.40
2022-10-17T01:05:53.266Z,3.55
2022-10-17T01:06:25.111Z,7.03
2022-10-17T01:06:57.269Z,4.85
2022-10-17T01:07:34.637Z,3.15
2022-10-17T01:08:09.592Z,3.05
2022-10-17T01:08:42.455Z,3.03
2022-10-17T01:09:14.395Z,3.05
2022-10-17T01:09:47.106Z,4.97
2022-10-17T01:10:20.693Z,3.05
2022-10-17T01:11:01.099Z,6.85
2022-10-17T01:11:40.432Z,3.22
2022-10-17T01:12:19.539Z,5.60
2022-10-17T01:13:06.744Z,7.28
2022-10-17T01:13:45.655Z,4.93
2022-10-17T01:14:27.684Z,7.10
2022-10-17T01:15:11.025Z,9.23
2022-10-17T01:15:57.676Z,3.05
2022-10-17T01:16:39.004Z,2.80
2022-10-17T01:17:20.134Z,3.85
2022-10-17T01:18:01.941Z,3.78
2022-10-17T01:18:49.039Z,10.00
2022-10-17T01:19:39.956Z,4.57
2022-10-17T01:20:44.546Z,5.45
2022-10-17T01:21:32.685Z,4.43
2022-10-17T01:22:09.771Z,4.30
2022-10-17T01:22:47.589Z,5.65
2022-10-17T01:23:34.511Z,3.50
2022-10-17T01:24:33.839Z,4.38
2022-10-17T01:25:24.624Z,4.57
2022-10-17T01:26:04.744Z,3.35
2022-10-17T01:26:55.535Z,3.53
2022-10-17T01:27:54.222Z,4.50
2022-10-17T01:29:00.282Z,3.50
2022-10-17T01:30:02.447Z,3.22
2022-10-17T01:31:09.579Z,3.97
2022-10-17T01:31:47.461Z,3.65
2022-10-17T01:32:22.932Z,4.55
2022-10-17T01:32:58.893Z,4.57
2022-10-17T01:33:46.913Z,3.13
2022-10-17T01:34:22.272Z,5.22
2022-10-17T01:34:59.421Z,3.88
2022-10-17T01:35:38.410Z,4.47
2022-10-17T01:36:14.042Z,3.65
2022-10-17T01:36:52.037Z,6.68
2022-10-17T01:37:33.020Z,5.10
2022-10-17T01:38:10.722Z,4.72
2022-10-17T01:38:49.029Z,3.72
2022-10-17T01:39:31.797Z,5.30
2022-10-17T01:40:10.514Z,3.75
2022-10-17T01:40:50.020Z,3.80
2022-10-17T01:41:29.430Z,4.03
2022-10-17T01:42:11.621Z,7.60
2022-10-17T01:42:51.586Z,3.90
2022-10-17T01:43:27.518Z,4.05
2022-10-17T01:44:04.642Z,4.43
2022-10-17T01:44:42.792Z,3.72
2022-10-17T01:45:19.813Z,3.97
2022-10-17T01:45:57.122Z,4.00
2022-10-17T01:46:35.498Z,4.28
2022-10-17T01:47:10.785Z,3.55
2022-10-17T01:47:44.865Z,4.30
2022-10-17T01:48:20.157Z,5.13
2022-10-17T01:48:53.868Z,6.97
2022-10-17T01:49:30.518Z,3.42
2022-10-17T01:50:07.173Z,4.10
2022-10-17T01:50:46.554Z,6.68
2022-10-17T01:51:22.652Z,3.88
2022-10-17T01:51:59.076Z,3.22
2022-10-17T01:52:37.185Z,3.42
2022-10-17T01:53:14.343Z,3.30
2022-10-17T01:53:53.804Z,4.68
2022-10-17T01:54:30.672Z,3.42
2022-10-17T01:55:08.476Z,6.20
2022-10-17T01:55:45.087Z,3.00
2022-10-17T01:56:19.560Z,3.03
2022-10-17T01:56:56.272Z,8.88
2022-10-17T01:57:34.200Z,2.97
2022-10-17T01:58:09.810Z,3.35
2022-10-17T01:58:47.377Z,3.42
2022-10-17T01:59:23.274Z,3.28
2022-10-17T01:59:56.422Z,3.47
2022-10-17T02:00:30.682Z,3.78
2022-10-17T02:01:07.017Z,2.15
2022-10-17T02:01:42.480Z,5.72
2022-10-17T02:02:16.994Z,3.15
2022-10-17T02:02:53.144Z,8.32
2022-10-17T02:03:27.467Z,11.38
2022-10-17T02:04:00.584Z,17.20
2022-10-17T02:04:33.688Z,23.23
2022-10-17T02:05:06.321Z,16.08
2022-10-17T02:05:40.836Z,12.15
2022-10-17T02:06:13.622Z,11.50
2022-10-17T02:06:45.468Z,14.50
2022-10-17T02:07:17.492Z,8.27
2022-10-17T02:07:50.271Z,12.68
2022-10-17T02:08:26.665Z,6.22
2022-10-17T02:08:58.443Z,4.20
2022-10-17T02:09:31.198Z,4.82
2022-10-17T02:10:09.709Z,7.63
2022-10-17T02:10:47.333Z,5.20
2022-10-17T02:11:22.318Z,3.25
2022-10-17T02:12:20.579Z,5.95
2022-10-17T02:12:59.245Z,5.90
2022-10-17T02:13:42.750Z,3.72
2022-10-17T02:14:26.033Z,4.38
2022-10-17T02:15:14.834Z,3.30
2022-10-17T02:16:02.854Z,2.80
2022-10-17T02:16:39.681Z,3.90
2022-10-17T02:17:19.597Z,4.30
2022-10-17T02:17:59.877Z,4.00
2022-10-17T02:18:56.508Z,3.58
2022-10-17T02:19:50.398Z,4.35
2022-10-17T02:20:26.551Z,10.82
2022-10-17T02:21:06.024Z,5.40
2022-10-17T02:21:45.279Z,5.78
2022-10-17T02:22:26.045Z,5.05
2022-10-17T02:23:02.731Z,8.88
2022-10-17T02:23:46.777Z,6.75
2022-10-17T02:24:26.886Z,4.18
2022-10-17T02:25:05.444Z,2.88
2022-10-17T02:25:41.518Z,3.25
2022-10-17T02:26:22.007Z,3.33
2022-10-17T02:26:59.494Z,3.20
2022-10-17T02:27:41.288Z,3.80
2022-10-17T02:28:20.968Z,5.13
2022-10-17T02:29:02.967Z,4.43
2022-10-17T02:29:43.177Z,4.13
2022-10-17T02:30:23.421Z,3.72
2022-10-17T02:31:01.601Z,9.73
2022-10-17T02:31:38.442Z,4.53
2022-10-17T02:32:17.218Z,3.80
2022-10-17T02:32:56.330Z,5.78
2022-10-17T02:33:32.616Z,3.47
2022-10-17T02:34:08.589Z,3.85
2022-10-17T02:34:43.845Z,8.32
2022-10-17T02:35:17.711Z,3.55
2022-10-17T02:35:53.574Z,3.80
2022-10-17T02:36:30.520Z,3.10
2022-10-17T02:37:05.049Z,3.38
2022-10-17T02:37:38.276Z,2.78
2022-10-17T02:38:13.164Z,3.15
2022-10-17T02:38:46.345Z,3.45
2022-10-17T02:39:20.522Z,3.95
2022-10-17T02:39:55.464Z,5.22
2022-10-17T02:40:29.840Z,3.85
2022-10-17T02:41:02.017Z,5.22
2022-10-17T02:41:37.245Z,3.47
2022-10-17T02:42:11.996Z,3.92
2022-10-17T02:42:47.085Z,2.67
2022-10-17T02:43:19.837Z,3.25
2022-10-17T02:43:55.654Z,5.75
2022-10-17T02:44:29.112Z,2.80
2022-10-17T02:45:03.664Z,4.22
2022-10-17T02:45:37.997Z,3.08
2022-10-17T02:46:09.942Z,4.43
2022-10-17T02:46:44.296Z,4.03
2022-10-17T02:47:21.899Z,2.50
2022-10-17T02:47:59.110Z,6.65
2022-10-17T02:48:38.218Z,4.35
2022-10-17T02:49:17.395Z,2.35
2022-10-17T02:49:51.968Z,2.40
2022-10-17T02:50:33.165Z,2.60
2022-10-17T02:51:12.023Z,3.85
2022-10-17T02:51:48.932Z,3.10
2022-10-17T02:52:28.150Z,2.40
2022-10-17T02:53:05.598Z,3.03
2022-10-17T02:53:45.070Z,3.15
2022-10-17T02:54:21.189Z,3.45
2022-10-17T02:54:58.593Z,3.17
2022-10-17T02:55:33.725Z,3.22
2022-10-17T02:56:17.981Z,3.90
2022-10-17T02:56:54.741Z,2.88
2022-10-17T02:57:31.956Z,2.92
2022-10-17T02:58:07.706Z,5.40
2022-10-17T02:58:41.427Z,2.92
2022-10-17T02:59:17.690Z,2.80
2022-10-17T02:59:51.016Z,3.53
2022-10-17T03:00:25.940Z,2.78
2022-10-17T03:00:58.362Z,2.85
2022-10-17T03:01:30.914Z,3.30
2022-10-17T03:02:05.097Z,5.22
2022-10-17T03:02:43.219Z,3.05
2022-10-17T03:03:23.842Z,2.80
2022-10-17T03:04:06.516Z,4.43
2022-10-17T03:04:39.543Z,2.90
2022-10-17T03:05:14.319Z,4.32
2022-10-17T03:05:47.149Z,2.50
2022-10-17T03:06:18.962Z,2.45
2022-10-17T03:06:50.793Z,2.17
2022-10-17T03:07:23.550Z,3.55
2022-10-17T03:07:56.741Z,3.95
2022-10-17T03:08:28.573Z,2.88
2022-10-17T03:09:01.608Z,1.92
2022-10-17T03:09:33.382Z,5.07
2022-10-17T03:10:06.131Z,2.15
2022-10-17T03:10:38.853Z,2.70
2022-10-17T03:11:10.613Z,3.83
2022-10-17T03:11:42.429Z,2.65
2022-10-17T03:12:15.174Z,2.22
2022-10-17T03:12:47.021Z,6.72
2022-10-17T03:13:18.913Z,6.20
2022-10-17T03:13:51.656Z,6.05
2022-10-17T03:14:23.478Z,3.47
2022-10-17T03:14:55.284Z,2.45
2022-10-17T03:15:28.023Z,2.50
2022-10-17T03:15:59.821Z,2.50
2022-10-17T03:16:31.665Z,3.65
2022-10-17T03:17:04.395Z,2.30
2022-10-17T03:17:37.410Z,5.75
2022-10-17T03:18:10.744Z,2.22
2022-10-17T03:18:45.453Z,2.30
2022-10-17T03:19:19.794Z,2.33
2022-10-17T03:19:51.575Z,2.78
2022-10-17T03:20:24.345Z,2.95
2022-10-17T03:20:56.141Z,2.88
2022-10-17T03:21:27.938Z,3.03
2022-10-17T03:22:00.678Z,5.80
2022-10-17T03:22:32.735Z,2.90
2022-10-17T03:23:04.620Z,2.05
2022-10-17T03:23:37.378Z,6.53
2022-10-17T03:24:09.153Z,3.90
2022-10-17T03:24:40.942Z,4.97
2022-10-17T03:25:13.677Z,2.83
2022-10-17T03:25:45.457Z,4.32
2022-10-17T03:26:17.334Z,2.75
2022-10-17T03:26:50.106Z,2.72
2022-10-17T03:27:22.005Z,1.88
2022-10-17T03:27:53.778Z,3.10
2022-10-17T03:28:26.618Z,2.67
2022-10-17T03:28:58.484Z,2.65
2022-10-17T03:29:30.357Z,4.55
2022-10-17T03:30:03.200Z,2.28
2022-10-17T03:30:34.985Z,3.75
2022-10-17T03:31:08.400Z,2.42
2022-10-17T03:31:41.176Z,3.20
2022-10-17T03:32:13.029Z,3.10
2022-10-17T03:32:44.824Z,2.30
2022-10-17T03:33:18.932Z,2.53
2022-10-17T03:33:50.709Z,6.15
2022-10-17T03:34:22.662Z,2.00
2022-10-17T03:34:55.362Z,2.60
2022-10-17T03:35:27.549Z,4.38
2022-10-17T03:35:59.312Z,2.83
2022-10-17T03:36:32.133Z,2.22
2022-10-17T03:37:03.908Z,4.20
2022-10-17T03:37:35.694Z,2.95
2022-10-17T03:38:08.497Z,3.03
2022-10-17T03:38:40.536Z,5.05
2022-10-17T03:39:12.397Z,2.58
2022-10-17T03:39:44.177Z,6.32
2022-10-17T03:40:16.999Z,2.60
2022-10-17T03:40:55.164Z,3.05
2022-10-17T03:41:27.935Z,3.55
2022-10-17T03:41:59.852Z,2.50
2022-10-17T03:42:31.948Z,4.00
2022-10-17T03:43:04.708Z,4.50
2022-10-17T03:43:37.070Z,2.33
2022-10-17T03:44:08.913Z,2.47
2022-10-17T03:44:41.657Z,4.65
2022-10-17T03:45:13.628Z,2.55
2022-10-17T03:45:45.424Z,3.90
2022-10-17T03:46:54.941Z,3.50
2022-10-17T03:47:28.506Z,3.33
2022-10-17T03:48:01.510Z,2.30
2022-10-17T03:48:34.810Z,4.10
2022-10-17T03:49:06.800Z,3.42
2022-10-17T03:49:39.569Z,2.75
2022-10-17T03:50:11.377Z,7.43
2022-10-17T03:50:43.173Z,2.80
2022-10-17T03:51:16.329Z,2.97
2022-10-17T03:51:48.100Z,3.75
2022-10-17T03:52:19.881Z,3.03
2022-10-17T03:52:52.846Z,3.03
2022-10-17T03:53:24.723Z,4.25
2022-10-17T03:53:56.532Z,2.88
2022-10-17T03:54:29.485Z,3.38
2022-10-17T03:55:01.370Z,3.42
2022-10-17T03:55:33.253Z,5.95
2022-10-17T03:56:13.876Z,2.92
2022-10-17T03:56:45.818Z,2.90
2022-10-17T03:57:17.690Z,4.07
2022-10-17T03:57:50.512Z,3.30
2022-10-17T03:58:22.353Z,4.00
2022-10-17T03:58:54.750Z,2.72
2022-10-17T03:59:27.520Z,2.70
2022-10-17T03:59:59.565Z,3.28
2022-10-17T04:00:31.345Z,2.72
2022-10-17T04:01:04.489Z,3.03
2022-10-17T04:01:37.736Z,4.25
2022-10-17T04:02:09.580Z,5.18
2022-10-17T04:02:41.535Z,3.85
2022-10-17T04:03:17.160Z,4.07
2022-10-17T04:03:51.754Z,3.35
2022-10-17T04:04:23.539Z,3.67
2022-10-17T04:04:56.305Z,2.88
2022-10-17T04:05:28.068Z,3.53
2022-10-17T04:06:00.183Z,2.78
2022-10-17T04:06:32.997Z,2.40
2022-10-17T04:07:04.801Z,4.80
2022-10-17T04:07:37.195Z,4.05
2022-10-17T04:08:09.943Z,2.88
2022-10-17T04:08:42.612Z,3.40
2022-10-17T04:09:14.488Z,2.67
2022-10-17T04:09:47.264Z,4.00
2022-10-17T04:10:19.140Z,2.83
2022-10-17T04:10:50.964Z,2.78
2022-10-17T04:11:22.999Z,3.65
2022-10-17T04:11:55.780Z,3.60
2022-10-17T04:12:27.948Z,3.50
2022-10-17T04:12:59.898Z,8.38
2022-10-17T04:13:33.332Z,4.32
2022-10-17T04:14:05.404Z,2.30
2022-10-17T04:14:38.802Z,4.70
2022-10-17T04:15:11.114Z,2.60
2022-10-17T04:15:42.913Z,9.32
2022-10-17T04:16:17.162Z,28.67
2022-10-17T04:16:48.958Z,33.08
2022-10-17T04:17:20.741Z,61.17
2022-10-17T04:17:53.510Z,51.67
2022-10-17T04:18:25.527Z,51.85
2022-10-17T04:18:59.847Z,35.08
2022-10-17T04:19:32.914Z,29.83
2022-10-17T04:20:05.565Z,19.10
2022-10-17T04:20:37.373Z,13.07
2022-10-17T04:21:09.705Z,7.10
2022-10-17T04:21:42.564Z,5.80
2022-10-17T04:22:14.353Z,5.25
2022-10-17T04:22:46.150Z,4.72
2022-10-17T04:23:19.030Z,3.80
2022-10-17T04:23:54.274Z,3.55
2022-10-17T04:24:26.392Z,3.47
2022-10-17T04:24:59.181Z,2.85
2022-10-17T04:25:33.447Z,4.05
2022-10-17T04:26:07.889Z,8.10
2022-10-17T04:26:40.709Z,4.90
2022-10-17T04:27:12.520Z,2.75
2022-10-17T04:27:44.375Z,4.63
2022-10-17T04:28:17.252Z,3.15
2022-10-17T04:28:49.717Z,2.80
2022-10-17T04:29:22.689Z,3.80
2022-10-17T04:29:54.480Z,2.63
2022-10-17T04:30:26.244Z,5.38
2022-10-17T04:30:59.655Z,5.82
2022-10-17T04:31:31.460Z,7.10
2022-10-17T04:32:03.450Z,7.07
2022-10-17T04:32:38.809Z,10.20
2022-10-17T04:33:10.626Z,5.28
2022-10-17T04:33:42.620Z,4.80
2022-10-17T04:34:16.844Z,4.97
2022-10-17T04:34:49.593Z,3.58
2022-10-17T04:35:21.415Z,2.97
2022-10-17T04:35:59.042Z,4.20
2022-10-17T04:36:30.807Z,6.88
2022-10-17T04:37:02.581Z,6.45
2022-10-17T04:37:35.446Z,4.00
2022-10-17T04:38:07.259Z,3.33
2022-10-17T04:38:39.417Z,2.90
2022-10-17T04:39:48.907Z,3.65
2022-10-17T04:40:21.832Z,2.85
2022-10-17T04:40:53.744Z,2.85
2022-10-17T04:41:25.886Z,4.20
2022-10-17T04:41:58.664Z,4.25
2022-10-17T04:42:30.739Z,3.33
2022-10-17T04:43:02.697Z,6.15
2022-10-17T04:43:37.471Z,5.18
2022-10-17T04:44:10.496Z,5.68
2022-10-17T04:44:42.268Z,3.17
2022-10-17T04:45:15.177Z,2.47
2022-10-17T04:45:47.057Z,3.78
2022-10-17T04:46:18.864Z,2.90
2022-10-17T04:46:51.591Z,2.83
2022-10-17T04:47:23.438Z,3.65
2022-10-17T04:47:55.296Z,2.60
2022-10-17T04:48:29.656Z,3.30
2022-10-17T04:49:01.615Z,3.00
2022-10-17T04:49:34.797Z,7.72
2022-10-17T04:50:08.089Z,10.50
2022-10-17T04:50:39.911Z,7.00
2022-10-17T04:51:13.635Z,10.05
2022-10-17T04:51:46.415Z,6.45
2022-10-17T04:52:18.233Z,7.20
2022-10-17T04:52:50.072Z,10.25
2022-10-17T04:53:23.286Z,9.13
2022-10-17T04:53:55.225Z,8.68
2022-10-17T04:54:26.993Z,6.63
2022-10-17T04:54:59.789Z,8.13
2022-10-17T04:55:31.785Z,4.50
2022-10-17T04:56:08.377Z,3.97
2022-10-17T04:56:41.191Z,5.05
2022-10-17T04:57:13.060Z,4.93
2022-10-17T04:57:44.904Z,3.85
2022-10-17T04:58:18.246Z,3.42
2022-10-17T04:58:50.717Z,5.22
2022-10-17T04:59:22.533Z,4.30
2022-10-17T04:59:55.345Z,3.03
2022-10-17T05:00:27.191Z,3.97
2022-10-17T05:00:59.017Z,4.50
2022-10-17T05:01:31.862Z,3.70
2022-10-17T05:02:03.753Z,9.40
2022-10-17T05:02:35.500Z,3.92
2022-10-17T05:03:08.297Z,4.22
2022-10-17T05:03:40.290Z,3.97
2022-10-17T05:04:12.065Z,3.80
2022-10-17T05:04:46.168Z,4.57
2022-10-17T05:05:17.977Z,3.38
2022-10-17T05:05:49.769Z,3.58
2022-10-17T05:06:24.000Z,5.22
2022-10-17T05:06:55.779Z,6.25
2022-10-17T05:07:27.622Z,3.95
2022-10-17T05:08:00.771Z,4.22
2022-10-17T05:08:32.594Z,7.05
2022-10-17T05:09:04.548Z,13.85
2022-10-17T05:09:37.317Z,11.10
2022-10-17T05:10:09.553Z,8.35
2022-10-17T05:10:43.393Z,12.65
2022-10-17T05:11:21.892Z,11.07
2022-10-17T05:11:53.793Z,12.15
2022-10-17T05:12:26.464Z,7.05
2022-10-17T05:12:59.424Z,7.90
2022-10-17T05:13:31.535Z,5.72
2022-10-17T05:14:03.463Z,6.45
2022-10-17T05:14:36.233Z,4.90
2022-10-17T05:15:09.184Z,4.90
2022-10-17T05:15:41.057Z,4.60
2022-10-17T05:16:13.862Z,3.97
2022-10-17T05:16:45.800Z,3.40
2022-10-17T05:17:17.783Z,4.70
2022-10-17T05:17:53.994Z,2.80
2022-10-17T05:18:26.803Z,3.58
2022-10-17T05:18:59.184Z,9.55
2022-10-17T05:19:31.005Z,3.40
2022-10-17T05:20:05.822Z,3.10
2022-10-17T05:20:38.086Z,4.35
2022-10-17T05:21:09.853Z,5.15
2022-10-17T05:21:42.617Z,4.47
2022-10-17T05:22:14.396Z,4.93
2022-10-17T05:22:46.157Z,2.67
2022-10-17T05:23:18.892Z,5.55
2022-10-17T05:23:51.219Z,3.78
2022-10-17T05:24:23.100Z,5.80
2022-10-17T05:24:55.974Z,3.40
2022-10-17T05:25:27.793Z,4.60
2022-10-17T05:25:59.957Z,3.40
2022-10-17T05:26:32.751Z,8.15
2022-10-17T05:27:04.575Z,4.43
2022-10-17T05:27:36.397Z,3.00
2022-10-17T05:28:09.308Z,3.47
2022-10-17T05:28:41.176Z,4.30
2022-10-17T05:29:13.016Z,3.13
2022-10-17T05:29:46.075Z,6.35
2022-10-17T05:30:18.114Z,3.38
2022-10-17T05:30:50.243Z,5.30
2022-10-17T05:31:23.053Z,3.85
2022-10-17T05:31:55.167Z,3.20
2022-10-17T05:32:27.358Z,3.20
2022-10-17T05:33:00.309Z,3.53
2022-10-17T05:33:32.296Z,3.35
2022-10-17T05:34:04.622Z,3.42
2022-10-17T05:34:37.411Z,3.42
2022-10-17T05:35:10.652Z,40.45
2022-10-17T05:35:42.463Z,137.40
2022-10-17T05:36:15.331Z,54.72
2022-10-17T05:36:47.184Z,61.72
2022-10-17T05:37:18.980Z,31.80
2022-10-17T05:37:50.802Z,25.92
2022-10-17T05:38:23.625Z,18.70
2022-10-17T05:38:55.508Z,16.55
2022-10-17T05:39:27.383Z,12.02
2022-10-17T05:40:00.173Z,6.45
2022-10-17T05:40:31.966Z,8.05
2022-10-17T05:41:05.450Z,6.20
2022-10-17T05:41:38.216Z,5.40
2022-10-17T05:42:10.026Z,11.70
2022-10-17T05:42:46.588Z,6.40
2022-10-17T05:43:19.408Z,7.75
2022-10-17T05:43:51.285Z,5.85
2022-10-17T05:44:23.155Z,3.35
2022-10-17T05:44:55.948Z,7.28
2022-10-17T05:45:27.759Z,5.00
2022-10-17T05:46:03.319Z,4.38
2022-10-17T05:46:36.056Z,8.23
2022-10-17T05:47:08.035Z,4.53
2022-10-17T05:47:40.426Z,4.50
2022-10-17T05:48:13.212Z,3.70
2022-10-17T05:48:45.139Z,6.32
2022-10-17T05:49:31.883Z,3.33
2022-10-17T05:50:06.739Z,6.88
2022-10-17T05:50:40.011Z,5.75
2022-10-17T05:51:13.250Z,3.85
2022-10-17T05:51:45.054Z,7.35
2022-10-17T05:52:16.896Z,5.35
2022-10-17T05:52:53.584Z,5.32
2022-10-17T05:53:25.518Z,7.47
2022-10-17T05:53:57.339Z,4.85
2022-10-17T05:54:30.124Z,4.57
2022-10-17T05:55:01.956Z,7.93
2022-10-17T05:55:33.745Z,6.20
2022-10-17T05:56:09.953Z,6.40
2022-10-17T05:56:41.740Z,4.05
2022-10-17T05:57:13.574Z,8.23
2022-10-17T05:57:46.317Z,8.10
2022-10-17T05:58:22.379Z,7.20
2022-10-17T05:59:01.099Z,5.70
2022-10-17T05:59:33.125Z,4.45
2022-10-17T06:00:06.338Z,5.53
2022-10-17T06:00:39.213Z,4.53
2022-10-17T06:01:12.933Z,4.40
2022-10-17T06:01:44.893Z,8.02
2022-10-17T06:02:17.819Z,6.18
2022-10-17T06:02:49.678Z,6.85
2022-10-17T06:03:21.466Z,8.82
2022-10-17T06:03:54.231Z,5.07
2022-10-17T06:04:27.751Z,8.55
2022-10-17T06:04:59.560Z,4.68
2022-10-17T06:05:32.323Z,7.45
2022-10-17T06:06:07.265Z,5.75
2022-10-17T06:06:39.918Z,5.05
2022-10-17T06:07:13.126Z,8.07
2022-10-17T06:07:45.178Z,5.50
2022-10-17T06:08:17.057Z,6.40
2022-10-17T06:08:49.816Z,7.03
2022-10-17T06:09:21.670Z,4.70
2022-10-17T06:09:53.637Z,8.05
2022-10-17T06:10:26.440Z,4.40
2022-10-17T06:10:58.246Z,4.07
2022-10-17T06:11:30.303Z,5.25
2022-10-17T06:12:03.036Z,6.65
2022-10-17T06:12:34.849Z,3.78
2022-10-17T06:13:06.663Z,7.25
2022-10-17T06:13:39.768Z,5.40
2022-10-17T06:14:11.530Z,7.00
2022-10-17T06:14:43.311Z,5.10
2022-10-17T06:15:16.101Z,5.57
2022-10-17T06:15:47.884Z,6.20
2022-10-17T06:16:19.729Z,5.78
2022-10-17T06:16:52.496Z,4.97
2022-10-17T06:17:24.274Z,5.95
2022-10-17T06:17:57.056Z,4.25
2022-10-17T06:18:29.093Z,5.40
2022-10-17T06:19:01.866Z,5.75
2022-10-17T06:19:33.753Z,4.38
2022-10-17T06:20:06.736Z,5.60
2022-10-17T06:20:43.836Z,4.95
2022-10-17T06:21:24.196Z,4.90
2022-10-17T06:21:56.983Z,9.52
2022-10-17T06:22:29.028Z,5.15
2022-10-17T06:23:01.089Z,6.68
2022-10-17T06:23:34.161Z,8.45
2022-10-17T06:24:06.096Z,9.50
2022-10-17T06:24:38.864Z,5.63
2022-10-17T06:25:10.893Z,5.13
2022-10-17T06:25:42.806Z,5.00
2022-10-17T06:26:16.016Z,4.25
2022-10-17T06:26:49.717Z,4.60
2022-10-17T06:27:22.580Z,4.80
2022-10-17T06:27:54.471Z,5.32
2022-10-17T06:28:26.595Z,6.80
2022-10-17T06:28:59.527Z,6.03
2022-10-17T06:29:31.423Z,6.60
2022-10-17T06:30:04.040Z,7.63
2022-10-17T06:30:39.070Z,5.20
2022-10-17T06:31:12.682Z,4.60
2022-10-17T06:31:45.465Z,5.57
2022-10-17T06:32:17.341Z,7.60
2022-10-17T06:32:49.201Z,6.40
2022-10-17T06:33:23.178Z,9.00
2022-10-17T06:33:55.081Z,6.57
2022-10-17T06:34:26.898Z,4.38
2022-10-17T06:34:59.717Z,6.88
2022-10-17T06:35:31.993Z,5.43
2022-10-17T06:36:05.699Z,6.68
2022-10-17T06:36:39.825Z,8.20
2022-10-17T06:37:11.627Z,6.93
2022-10-17T06:37:43.445Z,13.15
2022-10-17T06:38:16.222Z,4.63
2022-10-17T06:38:48.030Z,5.47
2022-10-17T06:39:20.814Z,5.95
2022-10-17T06:39:52.584Z,7.43
2022-10-17T06:40:24.532Z,5.32
2022-10-17T06:41:04.831Z,4.43
2022-10-17T06:41:36.613Z,10.52
2022-10-17T06:42:09.398Z,7.22
2022-10-17T06:42:41.399Z,8.70
2022-10-17T06:43:14.512Z,7.45
2022-10-17T06:43:47.221Z,11.48
2022-10-17T06:44:19.160Z,7.28
2022-10-17T06:44:51.932Z,7.78
2022-10-17T06:45:23.840Z,6.75
2022-10-17T06:45:58.596Z,8.43
2022-10-17T06:46:31.356Z,8.05
2022-10-17T06:47:03.269Z,16.63
2022-10-17T06:47:36.364Z,19.63
2022-10-17T06:48:08.512Z,17.42
2022-10-17T06:48:40.326Z,19.90
2022-10-17T06:49:13.281Z,10.95
2022-10-17T06:49:45.081Z,7.70
2022-10-17T06:50:16.925Z,10.38
2022-10-17T06:50:49.669Z,9.35
2022-10-17T06:51:21.437Z,7.20
2022-10-17T06:51:54.703Z,11.25
2022-10-17T06:52:27.670Z,6.50
2022-10-17T06:52:59.467Z,5.82
2022-10-17T06:53:32.673Z,6.47
2022-10-17T06:54:05.716Z,8.23
2022-10-17T06:54:37.535Z,17.15
2022-10-17T06:55:09.824Z,39.25
2022-10-17T06:55:42.818Z,34.92
2022-10-17T06:56:14.598Z,24.92
2022-10-17T06:56:46.401Z,24.23
2022-10-17T06:57:19.326Z,17.67
2022-10-17T06:57:52.265Z,21.08
2022-10-17T06:58:24.230Z,13.60
2022-10-17T06:58:56.990Z,13.63
2022-10-17T06:59:28.842Z,11.27
2022-10-17T07:00:00.713Z,12.07
2022-10-17T07:00:33.573Z,8.02
2022-10-17T07:01:47.236Z,9.98
2022-10-17T07:02:20.308Z,9.82
2022-10-17T07:02:52.428Z,11.43
2022-10-17T07:03:25.192Z,11.90
2022-10-17T07:03:57.141Z,9.60
2022-10-17T07:04:29.088Z,12.98
2022-10-17T07:05:01.868Z,9.68
2022-10-17T07:05:33.867Z,10.75
2022-10-17T07:06:06.331Z,8.98
2022-10-17T07:06:39.495Z,9.07
2022-10-17T07:07:12.704Z,9.98
2022-10-17T07:07:47.445Z,8.85
2022-10-17T07:08:21.763Z,9.90
2022-10-17T07:08:55.594Z,7.50
2022-10-17T07:09:27.712Z,6.80
2022-10-17T07:10:00.586Z,6.10
2022-10-17T07:10:38.009Z,5.85
2022-10-17T07:11:10.771Z,7.13
2022-10-17T07:11:43.563Z,6.30
2022-10-17T07:12:15.381Z,7.50
2022-10-17T07:12:47.213Z,5.28
2022-10-17T07:13:20.559Z,5.93
2022-10-17T07:13:52.529Z,7.38
2022-10-17T07:14:31.962Z,6.65
2022-10-17T07:15:05.389Z,5.55
2022-10-17T07:15:37.750Z,5.32
2022-10-17T07:16:11.492Z,4.65
2022-10-17T07:16:43.328Z,5.05
2022-10-17T07:17:15.121Z,6.45
2022-10-17T07:17:50.369Z,6.40
2022-10-17T07:18:22.201Z,7.05
2022-10-17T07:18:55.437Z,5.22
2022-10-17T07:19:27.549Z,11.32
2022-10-17T07:19:59.447Z,6.60
2022-10-17T07:20:32.800Z,7.32
2022-10-17T07:21:05.308Z,4.88
2022-10-17T07:21:39.258Z,7.20
2022-10-17T07:22:13.363Z,5.03
2022-10-17T07:22:46.192Z,4.45
2022-10-17T07:23:18.006Z,4.80
2022-10-17T07:23:50.027Z,11.15
2022-10-17T07:24:22.862Z,18.08
2022-10-17T07:24:54.656Z,14.63
2022-10-17T07:25:26.499Z,19.67
2022-10-17T07:26:01.341Z,19.33
2022-10-17T07:26:33.364Z,21.88
2022-10-17T07:27:05.149Z,20.60
2022-10-17T07:27:37.994Z,35.05
2022-10-17T07:28:09.765Z,31.85
2022-10-17T07:28:44.524Z,19.35
2022-10-17T07:29:16.474Z,16.27
2022-10-17T07:29:49.257Z,8.85
2022-10-17T07:30:21.554Z,7.68
2022-10-17T07:30:54.403Z,9.60
2022-10-17T07:31:27.340Z,8.05
2022-10-17T07:31:59.278Z,8.55
2022-10-17T07:32:32.544Z,5.82
2022-10-17T07:33:04.542Z,5.93
2022-10-17T07:33:36.638Z,10.40
2022-10-17T07:34:09.489Z,8.23
2022-10-17T07:34:41.341Z,9.27
2022-10-17T07:35:14.081Z,6.55